Time;durP1;ratioP1;P1;durP2;ratioP2;P2;SDS_P1;SDS_P2;PMS_P1;PMS_P2;Temp;Humidity;BMP_temperature;BMP_pressure;BME280_temperature;BME280_humidity;BME280_pressure;Samples;Min_cycle;Max_cycle;Signal;HPM_P1;HPM_P2
2022/05/20 00:00:47;;;;;;;12.60;10.00;;;13.80;99.90;;;;;;5056037;28;20075;-80
2022/05/20 00:03:13;;;;;;;12.23;9.88;;;13.80;99.90;;;;;;5044452;28;20074;-80
2022/05/20 00:05:38;;;;;;;11.40;9.60;;;13.80;99.90;;;;;;5039316;28;20573;-80
2022/05/20 00:08:05;;;;;;;10.60;9.60;;;13.80;99.90;;;;;;5006212;28;20053;-80
2022/05/20 00:10:31;;;;;;;12.30;9.55;;;13.80;99.90;;;;;;5022478;28;20137;-81
2022/05/20 00:12:59;;;;;;;10.50;9.35;;;13.80;99.90;;;;;;5030061;28;20060;-80
2022/05/20 00:15:26;;;;;;;9.70;8.70;;;13.80;99.90;;;;;;5038129;28;20053;-81
2022/05/20 00:17:53;;;;;;;11.25;8.73;;;13.80;99.90;;;;;;5037371;28;20052;-80
2022/05/20 00:20:20;;;;;;;9.50;8.43;;;13.90;99.90;;;;;;5034758;28;20045;-80
2022/05/20 00:22:50;;;;;;;10.27;8.07;;;13.90;99.90;;;;;;5037272;28;20113;-79
2022/05/20 00:28:03;;;;;;;10.80;8.45;;;13.90;99.90;;;;;;5057778;28;20049;-80
2022/05/20 00:30:29;;;;;;;9.90;8.10;;;14.00;99.90;;;;;;5009883;28;20093;-80
2022/05/20 00:32:55;;;;;;;11.70;8.80;;;13.90;99.90;;;;;;5057314;28;20048;-80
2022/05/20 00:35:22;;;;;;;8.68;7.63;;;13.90;99.90;;;;;;5045570;28;20049;-80
2022/05/20 00:37:48;;;;;;;11.10;7.97;;;13.90;99.90;;;;;;5014827;28;20045;-80
2022/05/20 00:40:16;;;;;;;8.35;7.35;;;14.00;99.90;;;;;;5027723;28;20075;-80
2022/05/20 00:42:43;;;;;;;8.55;7.28;;;14.00;99.90;;;;;;5054653;28;20057;-80
2022/05/20 00:45:10;;;;;;;8.70;6.75;;;13.90;99.90;;;;;;5032039;28;20052;-81
2022/05/20 00:47:36;;;;;;;8.55;7.57;;;13.90;99.90;;;;;;5053262;28;20095;-80
2022/05/20 00:50:10;;;;;;;8.32;7.18;;;13.90;99.90;;;;;;5033150;28;20045;-80
2022/05/20 00:52:38;;;;;;;9.20;6.88;;;13.90;99.90;;;;;;5071126;28;20048;-80
2022/05/20 00:55:12;;;;;;;10.30;6.70;;;13.80;99.90;;;;;;5028304;28;20046;-80
2022/05/20 00:57:42;;;;;;;7.30;6.60;;;13.70;99.90;;;;;;5030973;28;20041;-80
2022/05/20 01:00:15;;;;;;;9.02;6.40;;;13.70;99.90;;;;;;5030893;28;20080;-80
2022/05/20 01:02:41;;;;;;;7.68;6.25;;;13.80;99.90;;;;;;5040821;28;20056;-81
2022/05/20 01:05:17;;;;;;;7.78;6.53;;;13.80;99.90;;;;;;5034588;28;20077;-80
2022/05/20 01:07:44;;;;;;;9.52;6.57;;;13.80;99.90;;;;;;5053849;28;20109;-81
2022/05/20 01:10:10;;;;;;;8.52;6.35;;;13.90;99.90;;;;;;5052620;28;20128;-81
2022/05/20 01:12:35;;;;;;;7.47;5.75;;;13.80;99.90;;;;;;5037601;28;20109;-80
2022/05/20 01:15:04;;;;;;;7.07;5.68;;;13.80;99.90;;;;;;5005168;28;20072;-80
2022/05/20 01:17:30;;;;;;;6.95;5.70;;;13.80;99.90;;;;;;5039364;28;20049;-80
2022/05/20 01:19:56;;;;;;;7.28;6.25;;;13.70;99.90;;;;;;5037583;28;20551;-80
2022/05/20 01:22:40;;;;;;;7.07;6.00;;;13.60;99.90;;;;;;5059949;28;20097;-80
2022/05/20 01:25:09;;;;;;;12.77;6.00;;;13.60;99.90;;;;;;5035809;28;20064;-81
2022/05/20 01:27:42;;;;;;;7.03;5.65;;;13.60;99.90;;;;;;5027795;28;20053;-80
2022/05/20 01:30:11;;;;;;;6.00;4.63;;;13.60;99.90;;;;;;5037543;28;20057;-80
2022/05/20 01:32:37;;;;;;;6.43;5.35;;;13.60;99.90;;;;;;5014953;28;20045;-80
2022/05/20 01:35:05;;;;;;;6.95;4.95;;;13.50;99.90;;;;;;5019234;28;20045;-79
2022/05/20 01:37:31;;;;;;;7.47;5.37;;;13.50;99.90;;;;;;5035861;28;20088;-81
2022/05/20 01:40:00;;;;;;;8.13;5.60;;;13.50;99.90;;;;;;5010104;28;20034;-80
2022/05/20 01:42:53;;;;;;;7.85;5.45;;;13.60;99.90;;;;;;5056609;28;20585;-80
2022/05/20 01:45:49;;;;;;;8.27;5.25;;;13.60;99.90;;;;;;5043629;28;20057;-79
2022/05/20 01:48:26;;;;;;;8.55;5.80;;;13.60;99.90;;;;;;5030992;28;20053;-79
2022/05/20 01:50:55;;;;;;;7.60;5.70;;;13.60;99.90;;;;;;5056359;28;20524;-79
2022/05/20 01:53:27;;;;;;;7.53;5.70;;;13.60;99.90;;;;;;5055630;28;20095;-79
2022/05/20 01:56:14;;;;;;;8.02;6.35;;;13.60;99.90;;;;;;5056145;28;20107;-79
2022/05/20 01:58:45;;;;;;;8.70;5.70;;;13.60;99.90;;;;;;5037171;28;20106;-80
2022/05/20 02:01:16;;;;;;;6.80;5.70;;;13.50;99.90;;;;;;5061029;28;20516;-80
2022/05/20 02:03:51;;;;;;;8.60;6.18;;;13.50;99.90;;;;;;5030549;28;20104;-80
2022/05/20 02:06:32;;;;;;;6.70;6.00;;;13.40;99.90;;;;;;5038921;28;20049;-80
2022/05/20 02:09:05;;;;;;;9.75;6.60;;;13.40;99.90;;;;;;5058678;28;20091;-79
2022/05/20 02:11:43;;;;;;;7.40;6.68;;;13.40;99.90;;;;;;5055644;28;20033;-80
2022/05/20 02:14:31;;;;;;;9.95;7.35;;;13.30;99.90;;;;;;5049313;28;20102;-80
2022/05/20 02:17:32;;;;;;;9.70;6.97;;;13.30;99.90;;;;;;5049186;28;20056;-80
2022/05/20 02:20:00;;;;;;;8.30;6.65;;;13.20;99.90;;;;;;5055441;28;20080;-80
2022/05/20 02:22:29;;;;;;;8.53;6.30;;;13.10;99.90;;;;;;5053934;28;20095;-81
2022/05/20 02:24:57;;;;;;;6.20;5.60;;;13.10;99.90;;;;;;5055494;28;20104;-80
2022/05/20 02:27:26;;;;;;;7.82;6.70;;;13.00;99.90;;;;;;5034652;28;20076;-80
2022/05/20 02:30:10;;;;;;;10.88;8.18;;;13.00;99.90;;;;;;5055294;28;20074;-79
2022/05/20 02:32:48;;;;;;;9.03;8.03;;;13.00;99.90;;;;;;5052443;28;20136;-79
2022/05/20 02:35:14;;;;;;;8.63;7.83;;;12.90;99.90;;;;;;5019688;28;20831;-80
2022/05/20 02:37:40;;;;;;;10.67;8.30;;;12.90;99.90;;;;;;5035149;28;20038;-80
2022/05/20 02:40:09;;;;;;;10.53;7.80;;;12.90;99.90;;;;;;5031099;28;20064;-80
2022/05/20 02:42:35;;;;;;;9.93;7.90;;;12.80;99.90;;;;;;5019632;28;20049;-80
2022/05/20 02:45:02;;;;;;;9.47;8.47;;;12.80;99.90;;;;;;5028208;28;20087;-80
2022/05/20 02:47:31;;;;;;;11.43;8.60;;;12.80;99.90;;;;;;5034888;28;20052;-80
2022/05/20 02:50:06;;;;;;;13.00;9.77;;;12.80;99.90;;;;;;5039297;28;20045;-80
2022/05/20 02:52:32;;;;;;;10.27;8.67;;;12.80;99.90;;;;;;5030399;28;20053;-80
2022/05/20 02:54:58;;;;;;;10.63;9.23;;;12.80;99.90;;;;;;5041083;28;20550;-80
2022/05/20 02:57:24;;;;;;;11.50;9.20;;;12.80;99.90;;;;;;5049616;28;20064;-81
2022/05/20 03:05:23;;;;;;;16.53;11.17;;;12.70;99.90;;;;;;5032734;28;20045;-81
2022/05/20 03:07:48;;;;;;;14.23;9.70;;;12.70;99.90;;;;;;5019831;28;20045;-80
2022/05/20 03:10:14;;;;;;;14.73;10.87;;;12.70;99.90;;;;;;5004867;28;20098;-80
2022/05/20 03:12:40;;;;;;;14.57;10.87;;;12.70;99.90;;;;;;5037196;28;20049;-81
2022/05/20 03:15:09;;;;;;;12.60;10.53;;;12.60;99.90;;;;;;5022968;28;20473;-80
2022/05/20 03:17:35;;;;;;;15.07;11.17;;;12.60;99.90;;;;;;5036889;28;20152;-81
2022/05/20 03:20:01;;;;;;;13.50;10.37;;;12.60;99.90;;;;;;5022735;28;20611;-80
2022/05/20 03:22:27;;;;;;;11.63;10.47;;;12.50;99.90;;;;;;5045527;28;20042;-80
2022/05/20 03:24:55;;;;;;;14.80;11.23;;;12.50;99.90;;;;;;5044593;28;20053;-80
2022/05/20 03:27:21;;;;;;;14.30;11.43;;;12.40;99.90;;;;;;5019334;28;20099;-80
2022/05/20 03:29:46;;;;;;;13.67;11.57;;;12.40;99.90;;;;;;5044442;28;20041;-80
2022/05/20 03:32:13;;;;;;;14.30;11.47;;;12.40;99.90;;;;;;5034231;28;20037;-80
2022/05/20 03:34:40;;;;;;;14.30;12.13;;;12.30;99.90;;;;;;5050435;28;20038;-80
2022/05/20 03:37:06;;;;;;;16.50;11.27;;;12.30;99.90;;;;;;5062605;28;20049;-80
2022/05/20 03:39:35;;;;;;;14.90;11.47;;;12.30;99.90;;;;;;5026822;28;20050;-79
2022/05/20 03:42:02;;;;;;;11.63;10.43;;;12.20;99.90;;;;;;5044718;28;20053;-81
2022/05/20 03:44:28;;;;;;;15.43;11.27;;;12.30;99.90;;;;;;5034962;28;20040;-81
2022/05/20 03:46:55;;;;;;;12.13;10.00;;;12.20;99.90;;;;;;5037087;28;20058;-80
2022/05/20 03:49:24;;;;;;;13.33;10.20;;;12.10;99.90;;;;;;5036912;28;20056;-80
2022/05/20 03:51:51;;;;;;;14.77;11.50;;;11.90;99.90;;;;;;5025312;28;20284;-80
2022/05/20 03:54:22;;;;;;;13.60;11.37;;;11.90;99.90;;;;;;5021997;28;20056;-80
2022/05/20 03:56:48;;;;;;;13.70;11.33;;;12.00;99.90;;;;;;5029669;28;20083;-80
2022/05/20 03:59:14;;;;;;;13.07;11.20;;;12.00;99.90;;;;;;5037529;28;20080;-80
2022/05/20 04:01:57;;;;;;;12.70;11.17;;;12.00;99.90;;;;;;5062804;28;20049;-80
2022/05/20 04:04:36;;;;;;;12.60;11.17;;;12.00;99.90;;;;;;5018452;28;20583;-81
2022/05/20 04:07:07;;;;;;;13.47;10.87;;;12.00;99.90;;;;;;5036882;28;20448;-80
2022/05/20 04:09:34;;;;;;;14.35;11.40;;;12.00;99.90;;;;;;5036309;28;20056;-81
2022/05/20 04:12:03;;;;;;;13.90;11.83;;;12.00;99.90;;;;;;5027481;28;20584;-80
2022/05/20 04:14:30;;;;;;;15.40;11.17;;;12.00;99.90;;;;;;5028016;28;20041;-80
2022/05/20 04:16:57;;;;;;;14.30;12.80;;;12.10;99.90;;;;;;5043274;28;20045;-80
2022/05/20 04:19:29;;;;;;;15.87;12.33;;;12.00;99.90;;;;;;5050067;28;20049;-80
2022/05/20 04:21:59;;;;;;;17.50;13.60;;;12.10;99.90;;;;;;5031296;28;20041;-79
2022/05/20 04:24:25;;;;;;;15.10;11.97;;;12.10;99.90;;;;;;5067452;28;20045;-80
2022/05/20 04:26:51;;;;;;;14.83;12.60;;;12.10;99.90;;;;;;5050388;28;20522;-80
2022/05/20 04:29:20;;;;;;;17.20;13.27;;;12.20;99.90;;;;;;5037024;28;20049;-80
2022/05/20 04:31:49;;;;;;;14.53;12.63;;;12.30;99.90;;;;;;5030908;28;20072;-81
2022/05/20 04:34:15;;;;;;;16.03;11.97;;;12.30;99.90;;;;;;5033524;28;20052;-79
2022/05/20 04:36:41;;;;;;;17.67;12.80;;;12.40;99.90;;;;;;5030773;28;20052;-80
2022/05/20 04:39:07;;;;;;;17.03;13.17;;;12.40;99.90;;;;;;5033307;28;20041;-80
2022/05/20 04:47:04;;;;;;;15.90;13.00;;;12.40;99.90;;;;;;5061036;28;20045;-80
2022/05/20 04:49:32;;;;;;;19.13;13.80;;;12.40;99.90;;;;;;5071241;28;20076;-80
2022/05/20 04:52:00;;;;;;;16.83;13.07;;;12.40;99.90;;;;;;5053157;28;20447;-79
2022/05/20 04:57:18;;;;;;;20.20;13.23;;;12.40;99.90;;;;;;5027380;28;20049;-79
2022/05/20 04:59:45;;;;;;;14.90;12.57;;;12.50;99.90;;;;;;5026937;28;20046;-79
2022/05/20 05:02:13;;;;;;;23.57;13.77;;;12.40;99.90;;;;;;5040937;28;20041;-79
2022/05/20 05:04:40;;;;;;;15.10;12.80;;;12.40;99.90;;;;;;5021064;28;20048;-79
2022/05/20 05:07:09;;;;;;;15.73;13.60;;;12.50;99.90;;;;;;5015580;28;20033;-79
2022/05/20 05:09:43;;;;;;;18.83;14.00;;;12.50;99.90;;;;;;5033378;28;20052;-79
2022/05/20 05:12:10;;;;;;;23.37;13.53;;;12.50;99.90;;;;;;5048409;28;20370;-79
2022/05/20 05:14:37;;;;;;;20.30;15.47;;;12.60;99.90;;;;;;5031055;28;20048;-82
2022/05/20 05:17:06;;;;;;;18.20;14.33;;;12.70;99.90;;;;;;5049565;28;20060;-81
2022/05/20 05:19:33;;;;;;;19.17;14.57;;;12.70;99.90;;;;;;5052418;28;20068;-80
2022/05/20 05:21:59;;;;;;;22.20;14.73;;;12.80;99.90;;;;;;5049759;28;20053;-79
2022/05/20 05:24:25;;;;;;;21.00;15.30;;;12.90;99.90;;;;;;5056136;28;20144;-79
2022/05/20 05:26:51;;;;;;;24.23;15.30;;;12.90;99.90;;;;;;5045336;28;20102;-79
2022/05/20 05:29:16;;;;;;;20.83;14.93;;;13.00;99.90;;;;;;5034550;28;20041;-80
2022/05/20 05:31:42;;;;;;;21.17;14.57;;;13.10;99.90;;;;;;5028158;28;20049;-79
2022/05/20 05:34:10;;;;;;;20.73;15.93;;;13.10;99.90;;;;;;5046057;28;20045;-78
2022/05/20 05:36:36;;;;;;;22.47;15.47;;;13.30;99.90;;;;;;5035650;28;20045;-79
2022/05/20 05:39:02;;;;;;;19.93;14.43;;;13.30;99.90;;;;;;5032872;28;20052;-79
2022/05/20 05:41:28;;;;;;;25.23;16.27;;;13.40;99.90;;;;;;5036470;28;20053;-79
2022/05/20 05:43:54;;;;;;;24.20;14.00;;;13.50;99.90;;;;;;5046120;28;20507;-79
2022/05/20 05:46:19;;;;;;;22.53;15.30;;;13.60;99.90;;;;;;5032209;28;20041;-80
2022/05/20 05:48:45;;;;;;;22.73;15.90;;;13.70;99.90;;;;;;5031443;28;20054;-79
2022/05/20 05:51:11;;;;;;;20.37;14.83;;;13.80;99.90;;;;;;5029910;28;20171;-79
2022/05/20 05:53:37;;;;;;;19.37;13.60;;;13.90;99.90;;;;;;5026313;28;20037;-79
2022/05/20 05:56:06;;;;;;;18.83;14.30;;;14.00;99.90;;;;;;5053067;28;20063;-79
2022/05/20 05:58:33;;;;;;;20.80;13.95;;;14.20;99.90;;;;;;5051021;28;20104;-79
2022/05/20 06:00:59;;;;;;;20.00;13.30;;;14.30;99.90;;;;;;5030083;28;20064;-79
2022/05/20 06:03:25;;;;;;;15.20;11.95;;;14.50;99.90;;;;;;5050519;28;20040;-79
2022/05/20 06:05:51;;;;;;;13.40;10.93;;;14.50;99.90;;;;;;5027409;28;20047;-80
2022/05/20 06:08:16;;;;;;;17.20;10.57;;;14.60;99.90;;;;;;5036035;28;20060;-82
2022/05/20 06:10:44;;;;;;;17.45;11.52;;;14.60;99.90;;;;;;4998584;28;20044;-84
2022/05/20 06:13:10;;;;;;;14.75;11.38;;;14.60;99.90;;;;;;5035548;28;20052;-84
2022/05/20 06:15:37;;;;;;;16.33;11.73;;;14.60;99.90;;;;;;5053878;28;20041;-83
2022/05/20 06:18:03;;;;;;;15.35;11.00;;;14.50;99.90;;;;;;5065243;28;20539;-83
2022/05/20 06:20:29;;;;;;;16.63;11.60;;;14.50;99.90;;;;;;5004109;28;20042;-83
2022/05/20 06:22:56;;;;;;;19.67;11.80;;;14.50;99.90;;;;;;5067602;28;20049;-83
2022/05/20 06:25:23;;;;;;;17.63;11.90;;;14.80;99.90;;;;;;5024074;28;20079;-83
2022/05/20 06:27:49;;;;;;;17.17;11.65;;;15.00;99.90;;;;;;5021187;28;20053;-83
2022/05/20 06:30:18;;;;;;;14.65;9.98;;;15.10;99.90;;;;;;5033163;28;20049;-84
2022/05/20 06:32:44;;;;;;;13.65;9.88;;;15.30;99.90;;;;;;5026243;28;20045;-83
2022/05/20 06:40:45;;;;;;;9.65;8.65;;;15.80;99.90;;;;;;5047716;28;20057;-84
2022/05/20 06:43:20;;;;;;;14.18;9.07;;;16.00;99.90;;;;;;5022086;28;20105;-83
2022/05/20 06:45:49;;;;;;;13.38;9.02;;;16.10;99.90;;;;;;5047270;28;20524;-83
2022/05/20 06:48:15;;;;;;;14.13;8.65;;;16.30;99.90;;;;;;5045239;28;20042;-83
2022/05/20 06:50:42;;;;;;;12.23;8.27;;;16.40;99.90;;;;;;5028837;28;20049;-82
2022/05/20 06:53:09;;;;;;;12.25;7.50;;;16.30;99.90;;;;;;5017221;28;20049;-84
2022/05/20 06:55:35;;;;;;;13.30;7.97;;;16.30;99.90;;;;;;5028396;28;20078;-83
2022/05/20 06:58:01;;;;;;;9.65;7.47;;;16.20;99.90;;;;;;5030439;28;20037;-84
2022/05/20 07:00:27;;;;;;;8.88;6.40;;;16.10;99.90;;;;;;5020354;28;20565;-85
2022/05/20 07:02:53;;;;;;;11.02;6.47;;;16.20;99.90;;;;;;5013728;28;20054;-83
2022/05/20 07:05:19;;;;;;;9.60;6.45;;;16.20;99.90;;;;;;4999428;28;20045;-83
2022/05/20 07:07:46;;;;;;;11.23;6.68;;;16.20;99.90;;;;;;5029683;28;20045;-81
2022/05/20 07:10:13;;;;;;;10.02;6.38;;;16.30;99.90;;;;;;4996076;28;20136;-83
2022/05/20 07:12:39;;;;;;;13.35;7.10;;;16.40;99.90;;;;;;5048096;28;20045;-83
2022/05/20 07:15:06;;;;;;;8.55;6.60;;;16.40;99.90;;;;;;5042254;28;20587;-83
2022/05/20 07:17:32;;;;;;;9.13;6.97;;;16.30;99.90;;;;;;5014486;28;20048;-83
2022/05/20 07:19:58;;;;;;;10.15;6.45;;;16.30;99.90;;;;;;5015144;28;20037;-83
2022/05/20 07:22:24;;;;;;;10.38;6.72;;;16.30;99.90;;;;;;5012416;28;20056;-83
2022/05/20 07:24:50;;;;;;;11.23;7.28;;;16.40;99.90;;;;;;5039892;28;20048;-83
2022/05/20 07:27:17;;;;;;;9.02;6.55;;;16.40;99.90;;;;;;5046712;28;20432;-82
2022/05/20 07:29:43;;;;;;;11.02;6.85;;;16.50;99.90;;;;;;5048698;28;20052;-82
2022/05/20 07:32:09;;;;;;;8.55;6.75;;;16.70;99.90;;;;;;5016950;28;20059;-82
2022/05/20 07:34:35;;;;;;;9.63;6.80;;;16.80;99.90;;;;;;5019302;28;20404;-83
2022/05/20 07:37:01;;;;;;;8.32;5.97;;;16.80;99.90;;;;;;5045085;28;20048;-84
2022/05/20 07:39:27;;;;;;;9.40;5.70;;;16.90;99.90;;;;;;5011675;28;20473;-83
2022/05/20 07:41:53;;;;;;;7.97;5.38;;;16.90;99.90;;;;;;5013302;28;20064;-82
2022/05/20 07:44:19;;;;;;;9.80;6.22;;;16.80;99.90;;;;;;4998576;28;20144;-82
2022/05/20 07:46:45;;;;;;;10.93;6.75;;;16.70;99.90;;;;;;5063868;28;20049;-82
2022/05/20 07:49:11;;;;;;;11.80;6.75;;;16.80;99.90;;;;;;5012954;28;20731;-84
2022/05/20 07:51:40;;;;;;;10.75;6.30;;;16.80;99.90;;;;;;5030169;28;20056;-83
2022/05/20 07:54:11;;;;;;;8.65;6.78;;;16.80;99.90;;;;;;5037306;28;20065;-83
2022/05/20 07:56:40;;;;;;;11.93;6.97;;;16.70;99.90;;;;;;5040864;28;20056;-83
2022/05/20 07:59:10;;;;;;;10.85;5.90;;;16.60;99.90;;;;;;5029074;28;20056;-83
2022/05/20 08:01:40;;;;;;;9.57;6.15;;;16.80;99.90;;;;;;5027858;28;20079;-84
2022/05/20 08:06:56;;;;;;;8.82;5.03;;;17.20;99.90;;;;;;5044166;28;20103;-83
2022/05/20 08:09:22;;;;;;;7.85;5.15;;;17.40;99.90;;;;;;5022790;28;20056;-83
2022/05/20 08:11:48;;;;;;;10.73;5.78;;;17.60;99.90;;;;;;5018631;28;20524;-84
2022/05/20 08:14:13;;;;;;;7.38;6.03;;;17.60;99.90;;;;;;5029370;28;20258;-90
2022/05/20 08:16:39;;;;;;;9.13;5.82;;;17.50;99.90;;;;;;5020233;28;20110;-87
2022/05/20 08:19:05;;;;;;;6.55;5.20;;;17.40;99.90;;;;;;5035113;28;20049;-85
2022/05/20 08:21:31;;;;;;;8.07;5.13;;;17.50;99.90;;;;;;5005564;28;20044;-82
2022/05/20 08:23:57;;;;;;;6.43;3.72;;;17.90;99.90;;;;;;5011600;28;20052;-80
2022/05/20 08:26:22;;;;;;;7.95;5.32;;;18.40;99.90;;;;;;5052979;28;20810;-80
2022/05/20 08:28:49;;;;;;;10.55;4.95;;;18.60;99.90;;;;;;5035833;28;20080;-79
2022/05/20 08:31:15;;;;;;;5.88;4.38;;;18.90;99.90;;;;;;5011946;28;20071;-80
2022/05/20 08:33:42;;;;;;;7.93;4.65;;;19.00;99.90;;;;;;5008854;28;20064;-81
2022/05/20 08:36:08;;;;;;;8.68;4.68;;;19.10;99.90;;;;;;5049765;28;20036;-80
2022/05/20 08:38:34;;;;;;;7.72;5.18;;;19.10;99.90;;;;;;5028761;28;20087;-80
2022/05/20 08:41:01;;;;;;;7.93;5.43;;;19.00;99.90;;;;;;5033987;28;20033;-80
2022/05/20 08:43:31;;;;;;;5.43;4.72;;;19.00;99.90;;;;;;5047006;28;20049;-77
2022/05/20 08:45:57;;;;;;;8.05;5.03;;;19.00;99.90;;;;;;5030738;28;20060;-80
2022/05/20 08:48:23;;;;;;;7.78;5.50;;;18.90;99.90;;;;;;5015931;28;20054;-80
2022/05/20 08:50:52;;;;;;;6.93;5.75;;;18.90;99.90;;;;;;5031016;28;20504;-80
2022/05/20 08:53:28;;;;;;;8.93;6.15;;;18.80;99.90;;;;;;5032096;28;20044;-81
2022/05/20 08:55:57;;;;;;;7.10;5.93;;;18.70;99.90;;;;;;5043724;28;20111;-80
2022/05/20 08:58:25;;;;;;;8.85;5.85;;;18.50;99.90;;;;;;5049871;28;20079;-81
2022/05/20 09:00:51;;;;;;;10.35;6.43;;;18.40;99.90;;;;;;5061472;28;20045;-80
2022/05/20 09:03:17;;;;;;;10.00;7.63;;;18.50;99.90;;;;;;5013540;28;20111;-81
2022/05/20 09:05:44;;;;;;;9.70;5.10;;;18.80;99.90;;;;;;5037187;28;20217;-81
2022/05/20 09:08:16;;;;;;;6.85;5.85;;;19.00;99.90;;;;;;5032892;28;20045;-80
2022/05/20 09:10:49;;;;;;;7.85;6.95;;;19.30;99.90;;;;;;5035375;28;20608;-80
2022/05/20 09:13:20;;;;;;;6.85;5.50;;;19.50;99.90;;;;;;5037436;28;20224;-80
2022/05/20 09:16:05;;;;;;;10.13;8.07;;;19.60;99.90;;;;;;5040342;28;20112;-80
2022/05/20 09:18:36;;;;;;;10.60;8.23;;;19.70;99.90;;;;;;5071283;28;20047;-80
2022/05/20 09:21:02;;;;;;;8.00;5.80;;;19.70;99.90;;;;;;5051161;28;20107;-80
2022/05/20 09:23:28;;;;;;;7.68;6.30;;;19.80;99.90;;;;;;5036638;28;20104;-79
2022/05/20 09:26:09;;;;;;;9.90;6.45;;;19.90;99.90;;;;;;5032820;28;20087;-78
2022/05/20 09:28:44;;;;;;;9.57;5.80;;;20.10;99.90;;;;;;5054923;28;20102;-80
2022/05/20 09:31:19;;;;;;;9.93;6.30;;;20.30;99.90;;;;;;5052886;28;20500;-80
2022/05/20 09:33:51;;;;;;;8.95;5.07;;;20.40;99.90;;;;;;5029220;28;20109;-80
2022/05/20 09:36:38;;;;;;;4.57;4.18;;;20.60;99.90;;;;;;5061012;28;20092;-81
2022/05/20 09:39:15;;;;;;;5.55;5.05;;;20.70;99.90;;;;;;5068626;28;20053;-79
2022/05/20 09:41:53;;;;;;;7.18;5.57;;;20.80;99.90;;;;;;5065078;28;20139;-80
2022/05/20 09:44:23;;;;;;;8.65;5.63;;;20.70;99.90;;;;;;5024644;28;20461;-80
2022/05/20 09:47:05;;;;;;;5.72;4.97;;;20.50;99.90;;;;;;5068655;28;20057;-80
2022/05/20 09:49:38;;;;;;;4.40;3.92;;;20.50;99.90;;;;;;5036672;28;20499;-80
2022/05/20 09:52:37;;;;;;;7.25;5.00;;;20.60;99.90;;;;;;5053325;28;20041;-80
2022/05/20 09:55:13;;;;;;;6.53;4.60;;;20.60;99.90;;;;;;5047595;28;20108;-80
2022/05/20 09:57:41;;;;;;;6.47;4.15;;;20.60;99.90;;;;;;5034979;28;20056;-80
2022/05/20 10:00:13;;;;;;;6.03;5.05;;;20.50;99.90;;;;;;5044512;28;20045;-80
2022/05/20 10:02:43;;;;;;;3.67;2.90;;;20.40;99.90;;;;;;5038396;28;20041;-79
2022/05/20 10:05:30;;;;;;;5.57;4.22;;;20.30;99.90;;;;;;5054107;28;20045;-80
2022/05/20 10:08:14;;;;;;;5.38;4.38;;;20.30;99.90;;;;;;5037967;28;20099;-80
2022/05/20 10:10:43;;;;;;;5.65;3.72;;;20.30;99.90;;;;;;5048912;28;20818;-79
2022/05/20 10:13:17;;;;;;;6.18;5.40;;;20.20;99.90;;;;;;5040786;28;20049;-80
2022/05/20 10:15:47;;;;;;;6.30;5.65;;;20.20;99.90;;;;;;5050732;28;20128;-79
2022/05/20 10:18:41;;;;;;;5.47;3.85;;;20.00;99.90;;;;;;5026398;28;20132;-80
2022/05/20 10:21:32;;;;;;;5.90;5.30;;;20.00;99.90;;;;;;5021601;28;20041;-80
2022/05/20 10:24:42;;;;;;;8.82;6.28;;;20.00;99.90;;;;;;5030954;28;20831;-80
2022/05/20 10:27:36;;;;;;;6.85;6.05;;;19.90;99.90;;;;;;5028350;28;20037;-81
2022/05/20 10:33:02;;;;;;;6.60;5.40;;;19.90;99.90;;;;;;5045113;28;20050;-80
2022/05/20 10:35:49;;;;;;;7.90;6.60;;;19.90;99.90;;;;;;5022901;28;20045;-80
2022/05/20 10:38:30;;;;;;;9.77;6.03;;;19.90;99.90;;;;;;5008265;28;20060;-80
2022/05/20 10:41:05;;;;;;;5.33;4.50;;;19.90;99.90;;;;;;5035730;28;20044;-79
2022/05/20 10:49:22;;;;;;;8.82;6.63;;;20.40;99.90;;;;;;5047810;28;20053;-80
2022/05/20 10:52:14;;;;;;;6.75;4.55;;;20.50;99.90;;;;;;5031828;28;20202;-80
2022/05/20 10:55:08;;;;;;;7.07;5.90;;;20.60;99.90;;;;;;5052824;28;20132;-80
2022/05/20 10:57:37;;;;;;;6.97;6.13;;;20.60;99.90;;;;;;5067463;28;20549;-79
2022/05/20 11:00:11;;;;;;;7.70;5.30;;;20.60;99.90;;;;;;5035053;28;20711;-80
2022/05/20 11:02:51;;;;;;;8.50;6.25;;;20.60;99.90;;;;;;5023620;28;20045;-80
2022/05/20 11:05:46;;;;;;;8.05;6.35;;;20.60;99.90;;;;;;5048657;28;20045;-79
2022/05/20 11:08:20;;;;;;;7.60;5.80;;;20.70;99.90;;;;;;5044160;28;20041;-80
2022/05/20 11:11:04;;;;;;;8.70;4.97;;;20.60;99.90;;;;;;5051885;28;20075;-80
2022/05/20 11:13:47;;;;;;;7.63;5.28;;;20.70;99.90;;;;;;5043249;28;20041;-80
2022/05/20 11:16:39;;;;;;;8.30;5.18;;;20.70;99.90;;;;;;5034950;28;20579;-79
2022/05/20 11:19:14;;;;;;;;;;;20.90;99.90;;;;;;5035585;28;20049;-78
2022/05/20 11:22:14;;;;;;;6.50;5.00;;;20.80;99.90;;;;;;5067365;28;20007;-79
2022/05/20 11:25:17;;;;;;;7.57;5.40;;;20.90;99.90;;;;;;5048348;28;20116;-80
2022/05/20 11:28:10;;;;;;;6.25;5.65;;;20.90;99.90;;;;;;5031116;28;20049;-80
2022/05/20 11:30:42;;;;;;;6.38;4.55;;;20.80;99.90;;;;;;5032935;28;20060;-79
2022/05/20 11:33:30;;;;;;;4.30;3.90;;;20.80;99.90;;;;;;5031212;28;20565;-78
2022/05/20 11:36:15;;;;;;;3.75;2.78;;;21.00;99.90;;;;;;5063553;28;20056;-78
2022/05/20 11:39:18;;;;;;;5.78;4.55;;;21.10;99.90;;;;;;5022425;28;20044;-77
2022/05/20 11:42:03;;;;;;;6.47;5.38;;;21.30;99.90;;;;;;5031483;28;20096;-79
2022/05/20 11:44:39;;;;;;;9.35;5.30;;;21.40;99.90;;;;;;5022869;28;20041;-77
2022/05/20 11:47:32;;;;;;;6.30;5.30;;;21.50;99.90;;;;;;5028104;28;20045;-77
2022/05/20 11:50:39;;;;;;;7.88;5.80;;;21.70;99.90;;;;;;5066705;28;20049;-78
2022/05/20 11:53:41;;;;;;;6.13;5.13;;;21.60;99.70;;;;;;5069146;28;20053;-77
2022/05/20 11:56:14;;;;;;;;;;;21.50;99.90;;;;;;5069792;28;20053;-78
2022/05/20 11:59:06;;;;;;;6.30;4.72;;;21.50;99.90;;;;;;5032458;28;19933;-76
2022/05/20 12:01:33;;;;;;;;;;;21.40;99.90;;;;;;5034864;28;20049;-77
2022/05/20 12:04:08;;;;;;;6.63;4.53;;;21.20;97.70;;;;;;5047865;28;19925;-78
2022/05/20 12:06:53;;;;;;;5.88;4.57;;;21.10;99.90;;;;;;5029508;28;20052;-77
2022/05/20 12:09:31;;;;;;;6.57;5.95;;;21.10;99.90;;;;;;5059872;28;20080;-77
2022/05/20 12:12:11;;;;;;;7.10;5.55;;;21.00;99.90;;;;;;5033571;28;20118;-77
2022/05/20 12:15:12;;;;;;;7.28;5.45;;;20.90;99.90;;;;;;5050043;28;20041;-77
2022/05/20 12:17:51;;;;;;;6.35;5.07;;;20.90;96.50;;;;;;5016221;28;20057;-77
2022/05/20 12:25:57;;;;;;;9.82;7.30;;;20.60;99.90;;;;;;5066034;28;20375;-77
2022/05/20 12:28:23;;;;;;;12.27;9.02;;;20.60;99.90;;;;;;5033312;28;20104;-77
2022/05/20 12:31:29;;;;;;;12.38;9.93;;;20.60;99.90;;;;;;5052165;28;20071;-77
2022/05/20 12:33:56;;;;;;;12.48;10.48;;;20.60;99.90;;;;;;5000001;28;20054;-78
2022/05/20 12:36:21;;;;;;;12.55;11.20;;;20.60;99.90;;;;;;5031489;28;20056;-77
2022/05/20 12:38:48;;;;;;;12.88;10.38;;;20.60;99.90;;;;;;5033313;28;20037;-76
2022/05/20 12:41:20;;;;;;;13.18;11.77;;;20.70;99.90;;;;;;5022059;28;20798;-77
2022/05/20 12:43:53;;;;;;;16.23;12.90;;;20.70;99.90;;;;;;5053140;28;20071;-77
2022/05/20 12:46:43;;;;;;;15.13;13.30;;;20.70;99.90;;;;;;5036521;28;20045;-78
2022/05/20 12:49:09;;;;;;;19.00;16.05;;;20.70;99.90;;;;;;5044157;28;20076;-80
2022/05/20 12:51:48;;;;;;;17.67;15.82;;;20.60;99.90;;;;;;5034289;28;20567;-77
2022/05/20 12:54:20;;;;;;;16.80;14.65;;;20.70;99.90;;;;;;5025166;28;20047;-78
2022/05/20 12:56:46;;;;;;;14.82;13.23;;;20.60;99.90;;;;;;5029288;28;20056;-76
2022/05/20 12:59:19;;;;;;;17.17;13.32;;;20.50;99.90;;;;;;5037392;28;20045;-76
2022/05/20 13:01:52;;;;;;;18.05;13.55;;;20.40;99.90;;;;;;5049730;28;20045;-77
2022/05/20 13:04:23;;;;;;;17.15;12.60;;;20.30;99.90;;;;;;5029361;28;20087;-77
2022/05/20 13:06:50;;;;;;;13.88;11.73;;;20.20;99.90;;;;;;5046556;28;20029;-77
2022/05/20 13:09:35;;;;;;;13.50;11.80;;;20.20;99.90;;;;;;5035767;28;20041;-76
2022/05/20 13:12:08;;;;;;;15.27;11.90;;;20.10;99.90;;;;;;5051848;28;20045;-76
2022/05/20 13:14:36;;;;;;;16.60;12.77;;;20.10;99.90;;;;;;5037046;28;20036;-76
2022/05/20 13:17:04;;;;;;;14.05;11.48;;;20.00;99.90;;;;;;5037851;28;20055;-76
2022/05/20 13:19:47;;;;;;;16.52;13.75;;;20.00;99.90;;;;;;5033496;28;20120;-76
2022/05/20 13:22:16;;;;;;;15.98;13.35;;;19.90;99.90;;;;;;5051259;28;20346;-77
2022/05/20 13:24:42;;;;;;;15.43;13.20;;;19.80;99.90;;;;;;5033602;28;20057;-76
2022/05/20 13:27:18;;;;;;;15.10;12.63;;;19.80;99.90;;;;;;5032014;28;20049;-76
2022/05/20 13:29:46;;;;;;;12.98;11.52;;;19.80;99.90;;;;;;5027015;28;20057;-74
2022/05/20 13:32:14;;;;;;;13.70;11.45;;;19.60;99.90;;;;;;5036256;28;20048;-73
2022/05/20 13:34:42;;;;;;;13.65;11.93;;;19.60;99.90;;;;;;5027118;28;20045;-75
2022/05/20 13:37:11;;;;;;;14.80;10.95;;;19.50;99.90;;;;;;5031872;28;20045;-77
2022/05/20 13:39:37;;;;;;;13.25;10.32;;;19.40;99.90;;;;;;5034925;28;20481;-75